createdAt,value
2023-04-02T00:00:10.903Z,90.13
2023-04-02T00:03:04.005Z,89.12
2023-04-02T00:05:55.126Z,88.68
2023-04-02T00:08:26.936Z,89.01
2023-04-02T00:11:00.442Z,89.63
2023-04-02T00:13:35.282Z,89.88
2023-04-02T00:16:05.185Z,88.95
2023-04-02T00:18:33.260Z,89.52
2023-04-02T00:21:35.125Z,89.22
2023-04-02T00:24:10.748Z,94.61
2023-04-02T00:26:43.654Z,97.34
2023-04-02T00:29:13.068Z,95.14
2023-04-02T00:31:44.297Z,94.77
2023-04-02T00:34:29.269Z,96.24
2023-04-02T00:36:56.684Z,100.00
2023-04-02T00:39:27.606Z,96.93
2023-04-02T00:42:05.744Z,96.37
2023-04-02T00:44:38.826Z,96.20
2023-04-02T00:47:20.906Z,94.71
2023-04-02T00:49:52.030Z,99.23
2023-04-02T00:52:23.594Z,96.13
2023-04-02T00:54:57.019Z,94.34
2023-04-02T00:57:26.633Z,96.41
2023-04-02T01:00:16.159Z,97.06
2023-04-02T01:02:43.284Z,96.10
2023-04-02T01:05:13.786Z,97.23
2023-04-02T01:07:56.152Z,96.19
2023-04-02T01:10:48.966Z,94.07
2023-04-02T01:13:34.479Z,93.42
2023-04-02T01:16:12.321Z,92.40
2023-04-02T01:19:08.995Z,90.58
2023-04-02T01:21:53.986Z,88.87
2023-04-02T01:24:24.839Z,86.87
2023-04-02T01:26:58.943Z,95.22
2023-04-02T01:29:38.370Z,90.77
2023-04-02T01:32:10.548Z,89.10
2023-04-02T01:34:38.951Z,87.63
2023-04-02T01:37:23.265Z,89.39
2023-04-02T01:39:56.470Z,93.28
2023-04-02T01:42:29.208Z,91.57
2023-04-02T01:45:12.809Z,90.83
2023-04-02T01:47:40.874Z,88.76
2023-04-02T01:50:10.558Z,88.14
2023-04-02T01:52:41.820Z,86.26
2023-04-02T01:55:13.335Z,85.30
2023-04-02T01:57:49.994Z,86.28
2023-04-02T02:00:23.584Z,85.95
2023-04-02T02:02:52.287Z,84.25
2023-04-02T02:05:25.472Z,83.38
2023-04-02T02:07:55.108Z,83.99
2023-04-02T02:10:42.469Z,83.29
2023-04-02T02:13:16.212Z,86.07
2023-04-02T02:15:46.736Z,86.36
2023-04-02T02:18:17.162Z,87.77
2023-04-02T02:20:54.041Z,85.53
2023-04-02T02:23:41.354Z,86.54
2023-04-02T02:26:08.648Z,86.22
2023-04-02T02:28:42.953Z,87.86
2023-04-02T02:31:28.140Z,86.43
2023-04-02T02:34:01.333Z,85.96
2023-04-02T02:36:45.862Z,86.36
2023-04-02T02:39:34.781Z,85.71
2023-04-02T02:42:03.229Z,91.21
2023-04-02T02:44:34.726Z,92.50
2023-04-02T02:47:12.044Z,91.16
2023-04-02T02:49:44.932Z,90.24
2023-04-02T02:52:19.942Z,90.74
2023-04-02T02:54:54.661Z,88.03
2023-04-02T02:57:29.336Z,91.70
2023-04-02T02:59:59.885Z,90.28
2023-04-02T03:02:29.026Z,88.58
2023-04-02T03:04:56.759Z,88.75
2023-04-02T03:07:26.788Z,88.68
2023-04-02T03:10:24.250Z,85.62
2023-04-02T03:13:22.136Z,85.78
2023-04-02T03:16:01.488Z,85.75
2023-04-02T03:18:46.753Z,83.92
2023-04-02T03:21:36.450Z,85.00
2023-04-02T03:24:18.988Z,84.41
2023-04-02T03:27:11.566Z,83.49
2023-04-02T03:29:44.187Z,81.94
2023-04-02T03:32:40.735Z,80.98
2023-04-02T03:35:27.658Z,81.83
2023-04-02T03:38:12.763Z,85.04
2023-04-02T03:40:50.633Z,86.48
2023-04-02T03:43:26.877Z,86.10
2023-04-02T03:46:18.086Z,89.76
2023-04-02T03:48:51.256Z,86.25
2023-04-02T03:51:24.061Z,89.70
2023-04-02T03:53:51.264Z,87.62
2023-04-02T03:56:31.805Z,87.95
2023-04-02T03:59:12.061Z,85.24
2023-04-02T04:01:49.237Z,85.76
2023-04-02T04:04:20.288Z,84.29
2023-04-02T04:06:52.592Z,82.31
2023-04-02T04:09:39.567Z,82.46
2023-04-02T04:12:24.542Z,80.21
2023-04-02T04:15:08.045Z,79.01
2023-04-02T04:18:10.768Z,77.69
2023-04-02T04:20:51.379Z,76.94
2023-04-02T04:23:26.033Z,77.46
2023-04-02T04:26:20.161Z,76.55
2023-04-02T04:29:18.168Z,77.84
2023-04-02T04:31:49.712Z,78.57
2023-04-02T04:34:26.896Z,76.63
2023-04-02T04:37:01.896Z,76.62
2023-04-02T04:39:44.160Z,78.48
2023-04-02T04:42:20.599Z,81.16
2023-04-02T04:44:59.354Z,86.18
2023-04-02T04:47:37.123Z,86.17
2023-04-02T04:50:25.803Z,88.55
2023-04-02T04:52:52.920Z,88.23
2023-04-02T04:55:37.463Z,87.55
2023-04-02T04:58:32.062Z,88.04
2023-04-02T05:01:12.615Z,87.67
2023-04-02T05:03:52.704Z,87.36
2023-04-02T05:06:39.462Z,85.74
2023-04-02T05:09:15.573Z,86.36
2023-04-02T05:11:47.528Z,86.05
2023-04-02T05:14:36.153Z,87.36
2023-04-02T05:17:32.308Z,88.22
2023-04-02T05:20:16.532Z,87.42
2023-04-02T05:23:10.856Z,88.48
2023-04-02T05:25:49.638Z,89.25
2023-04-02T05:28:26.877Z,88.85
2023-04-02T05:31:03.718Z,91.62
2023-04-02T05:33:33.308Z,92.50
2023-04-02T05:36:11.854Z,93.57
2023-04-02T05:38:44.463Z,90.75
2023-04-02T05:41:32.463Z,88.94
2023-04-02T05:44:18.664Z,88.06
2023-04-02T05:47:14.284Z,88.11
2023-04-02T05:49:44.094Z,88.76
2023-04-02T05:52:26.355Z,89.99
2023-04-02T05:55:00.435Z,93.80
2023-04-02T05:57:45.876Z,91.94
2023-04-02T06:00:27.415Z,86.98
2023-04-02T06:03:12.950Z,87.93
2023-04-02T06:05:45.187Z,86.01
2023-04-02T06:08:17.804Z,81.81
2023-04-02T06:10:58.181Z,80.35
2023-04-02T06:13:25.493Z,77.80
2023-04-02T06:15:52.541Z,74.51
2023-04-02T06:18:33.340Z,73.75
2023-04-02T06:21:00.473Z,71.86
2023-04-02T06:23:41.621Z,69.00
2023-04-02T06:26:42.999Z,70.56
2023-04-02T06:29:38.540Z,74.82
2023-04-02T06:32:07.758Z,68.93
2023-04-02T06:34:38.281Z,69.41
2023-04-02T06:37:20.066Z,71.81
2023-04-02T06:39:47.067Z,68.57
2023-04-02T06:42:19.619Z,66.81
2023-04-02T06:44:46.925Z,65.18
2023-04-02T06:47:24.717Z,64.42
2023-04-02T06:50:27.517Z,62.38
2023-04-02T06:52:57.627Z,63.50
2023-04-02T06:55:39.249Z,68.59
2023-04-02T06:58:06.678Z,67.10
2023-04-02T07:00:48.438Z,68.12
2023-04-02T07:03:27.468Z,65.79
2023-04-02T07:05:54.894Z,71.45
2023-04-02T07:08:22.242Z,66.17
2023-04-02T07:10:49.267Z,62.00
2023-04-02T07:13:21.720Z,61.32
2023-04-02T07:15:54.243Z,61.17
2023-04-02T07:18:27.119Z,65.04
2023-04-02T07:20:54.645Z,61.99
2023-04-02T07:23:21.740Z,61.15
2023-04-02T07:25:50.488Z,61.08
2023-04-02T07:28:19.165Z,58.06
2023-04-02T07:30:47.220Z,56.68
2023-04-02T07:33:19.664Z,56.81
2023-04-02T07:35:47.813Z,55.10
2023-04-02T07:38:14.788Z,54.34
2023-04-02T07:40:42.128Z,55.20
2023-04-02T07:43:09.224Z,58.05
2023-04-02T07:45:36.517Z,56.26
2023-04-02T07:48:09.016Z,55.10
2023-04-02T07:50:36.931Z,56.58
2023-04-02T07:53:04.580Z,57.02
2023-04-02T07:55:31.542Z,59.18
2023-04-02T07:58:00.008Z,58.18
2023-04-02T08:00:29.094Z,59.25
2023-04-02T08:02:56.652Z,59.26
2023-04-02T08:05:24.044Z,59.57
2023-04-02T08:07:55.697Z,59.82
2023-04-02T08:10:23.862Z,59.88
2023-04-02T08:12:50.908Z,59.71
2023-04-02T08:15:18.185Z,60.34
2023-04-02T08:17:46.113Z,59.42
2023-04-02T08:20:18.522Z,59.43
2023-04-02T08:22:47.038Z,57.17
2023-04-02T08:25:14.222Z,61.06
2023-04-02T08:27:41.483Z,56.09
2023-04-02T08:30:09.934Z,55.66
2023-04-02T08:32:36.839Z,58.16
2023-04-02T08:35:04.552Z,54.49
2023-04-02T08:37:31.845Z,53.05
2023-04-02T08:39:58.886Z,53.60
2023-04-02T08:42:42.603Z,50.96
2023-04-02T08:45:29.750Z,52.22
2023-04-02T08:48:00.309Z,51.75
2023-04-02T08:50:33.362Z,53.22
2023-04-02T08:53:04.888Z,53.20
2023-04-02T08:55:56.582Z,54.38
2023-04-02T08:58:29.511Z,54.20
2023-04-02T09:00:58.125Z,53.29
2023-04-02T09:03:30.843Z,54.64
2023-04-02T09:06:00.947Z,55.58
2023-04-02T09:08:31.260Z,53.71
2023-04-02T09:11:03.457Z,56.75
2023-04-02T09:13:31.479Z,55.69
2023-04-02T09:16:07.862Z,56.12
2023-04-02T09:18:35.725Z,57.54
2023-04-02T09:21:28.554Z,57.49
2023-04-02T09:23:56.052Z,58.25
2023-04-02T09:26:27.373Z,57.22
2023-04-02T09:29:02.456Z,57.06
2023-04-02T09:31:39.332Z,57.60
2023-04-02T09:34:28.865Z,55.37
2023-04-02T09:36:56.841Z,56.99
2023-04-02T09:39:28.741Z,58.87
2023-04-02T09:42:05.553Z,55.10
2023-04-02T09:44:33.767Z,56.23
2023-04-02T09:47:05.074Z,54.94
2023-04-02T09:49:38.119Z,54.44
2023-04-02T09:52:29.331Z,56.68
2023-04-02T09:55:29.025Z,57.01
2023-04-02T09:58:12.196Z,58.02
2023-04-02T10:00:41.856Z,60.04
2023-04-02T10:03:24.737Z,59.27
2023-04-02T10:06:06.738Z,60.98
2023-04-02T10:08:33.929Z,59.94
2023-04-02T10:11:03.737Z,57.57
2023-04-02T10:13:30.850Z,57.12
2023-04-02T10:16:07.401Z,54.10
2023-04-02T10:18:44.382Z,54.15
2023-04-02T10:21:16.272Z,55.00
2023-04-02T10:23:43.487Z,54.74
2023-04-02T10:26:20.589Z,55.37
2023-04-02T10:28:54.393Z,54.34
2023-04-02T10:31:22.730Z,56.70
2023-04-02T10:34:02.849Z,57.85
2023-04-02T10:36:39.042Z,57.59
2023-04-02T10:39:20.317Z,54.53
2023-04-02T10:42:01.314Z,54.49
2023-04-02T10:44:43.636Z,52.14
2023-04-02T10:47:38.298Z,53.34
2023-04-02T10:50:32.631Z,52.30
2023-04-02T10:53:17.793Z,53.41
2023-04-02T10:55:58.854Z,54.71
2023-04-02T10:58:29.057Z,53.81
2023-04-02T11:01:07.098Z,53.67
2023-04-02T11:03:43.476Z,55.95
2023-04-02T11:06:23.238Z,55.96
2023-04-02T11:08:52.072Z,56.03
2023-04-02T11:11:42.139Z,55.58
2023-04-02T11:14:21.190Z,55.14
2023-04-02T11:16:52.211Z,52.20
2023-04-02T11:19:18.961Z,51.66
2023-04-02T11:22:01.899Z,48.39
2023-04-02T11:24:33.177Z,49.47
2023-04-02T11:27:12.392Z,47.60
2023-04-02T11:29:41.414Z,48.31
2023-04-02T11:32:27.645Z,47.94
2023-04-02T11:35:05.796Z,48.08
2023-04-02T11:37:34.307Z,47.04
2023-04-02T11:40:16.080Z,47.09
2023-04-02T11:42:51.005Z,46.23
2023-04-02T11:45:23.890Z,46.15
2023-04-02T11:48:00.052Z,46.03
2023-04-02T11:50:30.947Z,46.02
2023-04-02T11:53:03.369Z,47.74
2023-04-02T11:55:31.322Z,46.73
2023-04-02T11:58:29.591Z,47.23
2023-04-02T12:01:19.556Z,46.24
2023-04-02T12:04:07.931Z,45.78
2023-04-02T12:06:48.412Z,44.92
2023-04-02T12:09:28.824Z,44.47
2023-04-02T12:11:58.771Z,46.02
2023-04-02T12:14:46.524Z,45.87
2023-04-02T12:17:38.055Z,47.22
2023-04-02T12:20:09.394Z,47.98
2023-04-02T12:22:46.401Z,47.90
2023-04-02T12:25:19.373Z,49.35
2023-04-02T12:27:49.067Z,46.06
2023-04-02T12:30:20.611Z,46.64
2023-04-02T12:32:48.144Z,46.33
2023-04-02T12:35:34.710Z,47.60
2023-04-02T12:38:02.313Z,49.16
2023-04-02T12:40:29.394Z,46.13
2023-04-02T12:42:56.433Z,45.74
2023-04-02T12:45:29.493Z,44.92
2023-04-02T12:47:58.422Z,45.81
2023-04-02T12:50:25.922Z,47.02
2023-04-02T12:52:55.850Z,46.98
2023-04-02T12:55:29.479Z,49.76
2023-04-02T12:57:57.590Z,45.82
2023-04-02T13:00:27.719Z,46.69
2023-04-02T13:03:07.016Z,47.47
2023-04-02T13:05:48.307Z,47.64
2023-04-02T13:08:22.827Z,49.18
2023-04-02T13:11:03.514Z,49.09
2023-04-02T13:13:44.059Z,48.33
2023-04-02T13:16:20.246Z,47.95
2023-04-02T13:18:49.172Z,48.29
2023-04-02T13:21:28.978Z,48.11
2023-04-02T13:23:56.215Z,48.84
2023-04-02T13:26:26.356Z,48.34
2023-04-02T13:28:59.726Z,49.20
2023-04-02T13:31:27.536Z,50.29
2023-04-02T13:33:54.668Z,50.50
2023-04-02T13:36:22.682Z,46.25
2023-04-02T13:38:49.569Z,44.89
2023-04-02T13:41:23.830Z,44.74
2023-04-02T13:43:52.322Z,44.74
2023-04-02T13:46:22.730Z,46.00
2023-04-02T13:48:57.145Z,46.16
2023-04-02T13:51:48.203Z,45.42
2023-04-02T13:54:29.661Z,46.74
2023-04-02T13:56:57.902Z,44.63
2023-04-02T13:59:26.247Z,48.49
2023-04-02T14:01:58.152Z,46.97
2023-04-02T14:04:29.706Z,45.52
2023-04-02T14:07:14.810Z,45.15
2023-04-02T14:10:12.617Z,45.22
2023-04-02T14:12:50.627Z,46.24
2023-04-02T14:15:40.722Z,46.11
2023-04-02T14:18:36.881Z,49.77
2023-04-02T14:21:18.733Z,50.56
2023-04-02T14:23:56.407Z,48.88
2023-04-02T14:26:45.704Z,48.46
2023-04-02T14:29:29.221Z,49.16
2023-04-02T14:32:06.911Z,48.68
2023-04-02T14:34:42.892Z,48.43
2023-04-02T14:37:17.943Z,49.74
2023-04-02T14:40:14.295Z,51.23
2023-04-02T14:42:47.465Z,51.25
2023-04-02T14:45:23.990Z,51.24
2023-04-02T14:47:57.829Z,52.22
2023-04-02T14:50:33.727Z,52.55
2023-04-02T14:53:09.583Z,53.48
2023-04-02T14:55:43.015Z,54.81
2023-04-02T14:58:18.962Z,56.92
2023-04-02T15:00:56.950Z,59.09
2023-04-02T15:03:29.854Z,60.39
2023-04-02T15:06:04.867Z,60.30
2023-04-02T15:09:09.265Z,62.08
2023-04-02T15:11:45.924Z,61.83
2023-04-02T15:14:28.983Z,63.94
2023-04-02T15:16:56.141Z,62.71
2023-04-02T15:19:23.217Z,64.07
2023-04-02T15:22:25.826Z,66.26
2023-04-02T15:25:16.094Z,68.32
2023-04-02T15:28:01.816Z,69.00
2023-04-02T15:30:35.641Z,69.56
2023-04-02T15:33:40.519Z,66.90
2023-04-02T15:36:29.773Z,67.65
2023-04-02T15:39:29.954Z,68.53
2023-04-02T15:41:59.738Z,70.79
2023-04-02T15:44:26.447Z,70.83
2023-04-02T15:47:22.997Z,69.66
2023-04-02T15:50:19.805Z,67.25
2023-04-02T15:53:15.810Z,66.73
2023-04-02T15:56:03.622Z,66.70
2023-04-02T15:58:51.942Z,67.71
2023-04-02T16:01:37.565Z,64.96
2023-04-02T16:04:35.525Z,66.36
2023-04-02T16:07:27.470Z,66.48
2023-04-02T16:10:30.287Z,66.16
2023-04-02T16:13:26.288Z,66.92
2023-04-02T16:16:04.851Z,68.66
2023-04-02T16:18:31.768Z,68.31
2023-04-02T16:21:02.930Z,68.28
2023-04-02T16:23:37.381Z,70.69
2023-04-02T16:26:16.872Z,72.44
2023-04-02T16:29:06.416Z,73.58
2023-04-02T16:31:51.544Z,76.83
2023-04-02T16:34:41.475Z,80.04
2023-04-02T16:37:18.706Z,80.67
2023-04-02T16:40:15.835Z,77.97
2023-04-02T16:43:12.989Z,79.18
2023-04-02T16:46:07.409Z,79.85
2023-04-02T16:48:49.002Z,82.55
2023-04-02T16:51:40.229Z,81.74
2023-04-02T16:54:33.893Z,83.65
2023-04-02T16:57:27.147Z,81.95
2023-04-02T17:00:03.047Z,80.35
2023-04-02T17:02:45.085Z,80.53
2023-04-02T17:05:22.760Z,79.64
2023-04-02T17:08:02.029Z,79.59
2023-04-02T17:10:37.285Z,79.24
2023-04-02T17:13:39.890Z,81.86
2023-04-02T17:16:12.642Z,78.26
2023-04-02T17:18:43.734Z,79.11
2023-04-02T17:21:15.208Z,78.84
2023-04-02T17:23:56.580Z,78.28
2023-04-02T17:26:30.399Z,75.27
2023-04-02T17:29:07.253Z,70.12
2023-04-02T17:31:35.998Z,69.57
2023-04-02T17:34:24.499Z,67.82
2023-04-02T17:37:27.903Z,67.79
2023-04-02T17:40:27.500Z,67.29
2023-04-02T17:43:19.237Z,67.51
2023-04-02T17:45:52.553Z,67.17
2023-04-02T17:48:34.775Z,67.92
2023-04-02T17:51:24.291Z,67.42
2023-04-02T17:54:01.736Z,66.15
2023-04-02T17:56:51.214Z,68.70
2023-04-02T17:59:39.857Z,69.27
2023-04-02T18:02:38.442Z,68.17
2023-04-02T18:05:33.029Z,67.90
2023-04-02T18:08:26.564Z,66.83
2023-04-02T18:11:39.176Z,68.60
2023-04-02T18:14:35.334Z,69.20
2023-04-02T18:17:14.280Z,69.78
2023-04-02T18:20:14.618Z,68.95
2023-04-02T18:22:46.134Z,70.50
2023-04-02T18:25:40.354Z,67.76
2023-04-02T18:28:46.235Z,64.45
2023-04-02T18:31:40.893Z,62.99
2023-04-02T18:34:16.645Z,62.64
2023-04-02T18:37:01.765Z,64.71
2023-04-02T18:39:54.488Z,66.39
2023-04-02T18:42:49.170Z,65.78
2023-04-02T18:45:38.598Z,67.48
2023-04-02T18:48:05.996Z,70.04
2023-04-02T18:50:39.488Z,68.59
2023-04-02T18:53:17.704Z,68.50
2023-04-02T18:55:54.509Z,69.53
2023-04-02T18:58:28.893Z,69.18
2023-04-02T19:00:56.548Z,69.26
2023-04-02T19:03:31.480Z,69.86
2023-04-02T19:06:23.801Z,70.18
2023-04-02T19:09:00.719Z,69.84
2023-04-02T19:11:32.500Z,68.87
2023-04-02T19:14:02.390Z,69.73
2023-04-02T19:16:47.881Z,69.89
2023-04-02T19:19:20.696Z,68.79
2023-04-02T19:22:10.621Z,70.02
2023-04-02T19:25:08.532Z,70.33
2023-04-02T19:27:56.068Z,70.37
2023-04-02T19:30:51.653Z,70.75
2023-04-02T19:33:38.506Z,69.37
2023-04-02T19:36:35.792Z,69.34
2023-04-02T19:39:18.301Z,70.42
2023-04-02T19:41:59.649Z,71.24
2023-04-02T19:44:27.182Z,69.21
2023-04-02T19:46:54.551Z,71.60
2023-04-02T19:49:28.600Z,70.72
2023-04-02T19:51:57.095Z,70.05
2023-04-02T19:54:24.203Z,70.14
2023-04-02T19:56:51.376Z,69.68
2023-04-02T19:59:19.005Z,70.58
2023-04-02T20:01:47.302Z,69.74
2023-04-02T20:04:15.252Z,71.84
2023-04-02T20:06:42.739Z,71.55
2023-04-02T20:09:09.833Z,71.44
2023-04-02T20:11:38.643Z,74.44
2023-04-02T20:14:06.046Z,74.88
2023-04-02T20:16:34.620Z,74.99
2023-04-02T20:19:01.758Z,76.24
2023-04-02T20:21:29.741Z,75.41
2023-04-02T20:23:56.676Z,75.35
2023-04-02T20:26:23.692Z,74.87
2023-04-02T20:28:50.785Z,73.14
2023-04-02T20:31:19.108Z,72.46
2023-04-02T20:33:46.778Z,72.17
2023-04-02T20:36:16.468Z,72.37
2023-04-02T20:38:43.673Z,71.48
2023-04-02T20:41:10.932Z,71.70
2023-04-02T20:43:40.778Z,69.31
2023-04-02T20:46:10.065Z,68.06
2023-04-02T20:48:37.927Z,69.71
2023-04-02T20:51:08.467Z,68.66
2023-04-02T20:53:37.155Z,69.06
2023-04-02T20:56:12.149Z,69.01
2023-04-02T20:58:40.149Z,68.41
2023-04-02T21:01:12.599Z,67.78
2023-04-02T21:03:40.257Z,67.52
2023-04-02T21:06:13.940Z,68.26
2023-04-02T21:08:41.110Z,67.70
2023-04-02T21:11:09.340Z,67.63
2023-04-02T21:13:37.245Z,67.78
2023-04-02T21:16:06.123Z,68.25
2023-04-02T21:18:33.113Z,68.42
2023-04-02T21:21:05.489Z,68.17
2023-04-02T21:23:33.999Z,68.15
2023-04-02T21:26:04.608Z,68.92
2023-04-02T21:28:31.635Z,69.67
2023-04-02T21:31:07.859Z,69.50
2023-04-02T21:33:43.045Z,69.87
2023-04-02T21:36:16.398Z,68.10
2023-04-02T21:38:47.230Z,69.20
2023-04-02T21:41:20.131Z,69.15
2023-04-02T21:43:48.624Z,69.92
2023-04-02T21:46:21.380Z,68.53
2023-04-02T21:48:49.913Z,68.87
2023-04-02T21:51:18.049Z,70.30
2023-04-02T21:53:45.849Z,69.72
2023-04-02T21:56:26.844Z,70.70
2023-04-02T21:58:54.055Z,69.82
2023-04-02T22:01:27.244Z,69.98
2023-04-02T22:03:56.391Z,69.50
2023-04-02T22:06:25.006Z,69.88
2023-04-02T22:08:57.222Z,69.15
2023-04-02T22:11:29.545Z,69.55
2023-04-02T22:13:56.510Z,69.22
2023-04-02T22:16:27.625Z,70.04
2023-04-02T22:18:56.360Z,69.11
2023-04-02T22:21:23.820Z,69.27
2023-04-02T22:23:50.711Z,68.51
2023-04-02T22:26:19.837Z,69.13
2023-04-02T22:28:47.132Z,69.67
2023-04-02T22:31:26.535Z,68.53
2023-04-02T22:33:55.040Z,68.18
2023-04-02T22:36:22.969Z,70.39
2023-04-02T22:38:50.138Z,69.71
2023-04-02T22:41:22.728Z,69.43
2023-04-02T22:43:50.251Z,70.68
2023-04-02T22:46:19.274Z,70.67
2023-04-02T22:48:47.470Z,71.16
2023-04-02T22:51:16.401Z,71.61
2023-04-02T22:53:43.379Z,69.86
2023-04-02T22:56:19.006Z,70.07
2023-04-02T22:58:46.484Z,71.07
2023-04-02T23:01:15.968Z,70.13
2023-04-02T23:03:43.631Z,70.00
2023-04-02T23:06:17.579Z,71.28
2023-04-02T23:08:45.764Z,70.98
2023-04-02T23:11:16.094Z,69.86
2023-04-02T23:13:44.039Z,70.63
2023-04-02T23:16:13.600Z,72.37
2023-04-02T23:18:42.720Z,73.67
2023-04-02T23:21:10.653Z,74.26
2023-04-02T23:23:37.957Z,73.77
2023-04-02T23:26:27.837Z,74.95
2023-04-02T23:28:54.561Z,72.87
2023-04-02T23:31:23.224Z,72.15
2023-04-02T23:33:52.076Z,74.04
2023-04-02T23:36:26.920Z,75.75
2023-04-02T23:39:01.497Z,76.15
2023-04-02T23:41:30.693Z,74.44
2023-04-02T23:43:58.651Z,74.71
2023-04-02T23:46:26.364Z,74.88
2023-04-02T23:48:55.094Z,75.40
2023-04-02T23:51:22.503Z,74.65
2023-04-02T23:53:50.571Z,74.64
2023-04-02T23:56:18.177Z,74.59
2023-04-02T23:58:45.072Z,74.18
